Time;durP1;ratioP1;P1;durP2;ratioP2;P2;SDS_P1;SDS_P2;PMS_P1;PMS_P2;Temp;Humidity;BMP_temperature;BMP_pressure;BME280_temperature;BME280_humidity;BME280_pressure;Samples;Min_cycle;Max_cycle;Signal;HPM_P1;HPM_P2
2022/07/13 00:00:44;;;;;;;3.87;2.37;;;;;;;;;;5002837;28;20338;-67
2022/07/13 00:03:11;;;;;;;4.90;2.27;;;;;;;;;;5000598;28;20366;-67
2022/07/13 00:05:38;;;;;;;5.23;2.30;;;;;;;;;;4854978;28;4257016;-67
2022/07/13 00:08:05;;;;;;;5.37;2.60;;;;;;;;;;5000154;28;20223;-66
2022/07/13 00:10:31;;;;;;;5.10;2.30;;;;;;;;;;5002747;28;20231;-67
2022/07/13 00:12:58;;;;;;;6.60;2.00;;;;;;;;;;4999620;28;20284;-67
2022/07/13 00:15:25;;;;;;;4.40;2.03;;;;;;;;;;5002329;28;20235;-67
2022/07/13 00:17:51;;;;;;;4.53;1.67;;;;;;;;;;5000719;28;20776;-67
2022/07/13 00:20:18;;;;;;;8.10;2.63;;;;;;;;;;4989164;28;20254;-67
2022/07/13 00:22:45;;;;;;;3.87;1.50;;;;;;;;;;5001175;28;20706;-67
2022/07/13 00:25:12;;;;;;;3.30;1.67;;;;;;;;;;5002393;28;20641;-67
2022/07/13 00:27:39;;;;;;;3.37;1.60;;;;;;;;;;5000823;28;20270;-67
2022/07/13 00:30:07;;;;;;;4.17;1.63;;;;;;;;;;4985043;28;20227;-67
2022/07/13 00:32:34;;;;;;;4.63;2.00;;;;;;;;;;5000161;28;20227;-67
2022/07/13 00:35:01;;;;;;;6.80;2.60;;;;;;;;;;5001696;28;23052;-67
2022/07/13 00:37:28;;;;;;;6.33;2.23;;;;;;;;;;4983157;28;20310;-67
2022/07/13 00:39:55;;;;;;;6.33;2.17;;;;;;;;;;5001926;28;20255;-67
2022/07/13 00:42:22;;;;;;;3.90;2.13;;;;;;;;;;4982808;28;20227;-67
2022/07/13 00:44:50;;;;;;;4.80;1.63;;;;;;;;;;4982922;28;20310;-70
2022/07/13 00:47:16;;;;;;;3.30;1.43;;;;;;;;;;4983485;28;20231;-67
2022/07/13 00:49:43;;;;;;;3.30;1.47;;;;;;;;;;4960161;28;20232;-67
2022/07/13 00:52:10;;;;;;;3.77;1.60;;;;;;;;;;4980183;28;20230;-67
2022/07/13 00:54:37;;;;;;;3.77;1.70;;;;;;;;;;4999488;28;20603;-67
2022/07/13 00:57:04;;;;;;;4.70;2.10;;;;;;;;;;4963559;28;20223;-67
2022/07/13 00:59:31;;;;;;;3.87;1.60;;;;;;;;;;5000275;28;20239;-71
2022/07/13 01:01:58;;;;;;;7.17;1.73;;;;;;;;;;5001249;28;20246;-67
2022/07/13 01:04:25;;;;;;;3.47;1.57;;;;;;;;;;4981690;28;20767;-67
2022/07/13 01:06:55;;;;;;;4.57;1.93;;;;;;;;;;4984378;28;20351;-67
2022/07/13 01:09:24;;;;;;;2.80;1.63;;;;;;;;;;5000611;28;20235;-67
2022/07/13 01:11:51;;;;;;;5.23;1.60;;;;;;;;;;4982273;28;20338;-67
2022/07/13 01:14:18;;;;;;;4.63;1.70;;;;;;;;;;4984350;28;20291;-67
2022/07/13 01:16:45;;;;;;;3.13;1.30;;;;;;;;;;4998523;28;20766;-67
2022/07/13 01:19:12;;;;;;;4.53;1.70;;;;;;;;;;5001028;28;20231;-67
2022/07/13 01:21:39;;;;;;;3.07;1.53;;;;;;;;;;4963183;28;20590;-67
2022/07/13 01:24:06;;;;;;;3.73;1.57;;;;;;;;;;4999245;28;20305;-67
2022/07/13 01:26:33;;;;;;;4.03;1.60;;;;;;;;;;4967432;28;20306;-67
2022/07/13 01:29:00;;;;;;;4.77;1.63;;;;;;;;;;4981253;28;20223;-67
2022/07/13 01:31:44;;;;;;;3.63;1.47;;;;;;;;;;4983820;28;20226;-67
2022/07/13 01:34:12;;;;;;;9.50;1.80;;;;;;;;;;4981239;28;21072;-67
2022/07/13 01:36:56;;;;;;;6.20;1.60;;;;;;;;;;4987541;28;20219;-67
2022/07/13 01:39:24;;;;;;;5.87;1.70;;;;;;;;;;4987284;28;20261;-68
2022/07/13 01:42:09;;;;;;;6.50;1.67;;;;;;;;;;5001260;28;20226;-67
2022/07/13 01:44:36;;;;;;;3.57;1.80;;;;;;;;;;4981732;28;20270;-67
2022/07/13 01:47:21;;;;;;;3.43;1.63;;;;;;;;;;4985686;28;20711;-67
2022/07/13 01:49:48;;;;;;;6.53;1.90;;;;;;;;;;4985396;28;20262;-67
2022/07/13 01:52:15;;;;;;;6.17;1.70;;;;;;;;;;5004407;28;20302;-67
2022/07/13 01:54:41;;;;;;;5.07;1.67;;;;;;;;;;4999701;28;20235;-67
2022/07/13 01:57:08;;;;;;;4.90;1.53;;;;;;;;;;5001531;28;20701;-67
2022/07/13 01:59:57;;;;;;;6.33;1.80;;;;;;;;;;4985618;28;20222;-68
2022/07/13 02:02:23;;;;;;;6.57;1.60;;;;;;;;;;4982202;28;20310;-67
2022/07/13 02:04:54;;;;;;;3.83;1.77;;;;;;;;;;4985623;28;20261;-67
2022/07/13 02:07:21;;;;;;;4.80;1.60;;;;;;;;;;5000678;28;20231;-68
2022/07/13 02:09:49;;;;;;;3.47;1.73;;;;;;;;;;4985750;28;20227;-67
2022/07/13 02:12:16;;;;;;;3.77;1.67;;;;;;;;;;4986419;28;20276;-67
2022/07/13 02:14:43;;;;;;;3.27;1.60;;;;;;;;;;5000457;28;20226;-67
2022/07/13 02:17:10;;;;;;;4.20;1.50;;;;;;;;;;4986527;28;20623;-67
2022/07/13 02:19:37;;;;;;;3.37;1.50;;;;;;;;;;5000172;28;20233;-67
2022/07/13 02:22:21;;;;;;;6.17;1.77;;;;;;;;;;4987301;28;20289;-68
2022/07/13 02:24:48;;;;;;;3.33;1.77;;;;;;;;;;4987303;28;20226;-67
2022/07/13 02:27:15;;;;;;;5.17;2.03;;;;;;;;;;5000559;28;20321;-68
2022/07/13 02:29:42;;;;;;;4.67;1.97;;;;;;;;;;4987322;28;20227;-67
2022/07/13 02:32:08;;;;;;;4.73;1.97;;;;;;;;;;4983982;28;20346;-68
2022/07/13 02:34:36;;;;;;;4.67;1.90;;;;;;;;;;4986435;28;20223;-67
2022/07/13 02:37:03;;;;;;;4.23;2.13;;;;;;;;;;5001569;28;20234;-67
2022/07/13 02:39:29;;;;;;;5.07;2.13;;;;;;;;;;4986515;28;20234;-68
2022/07/13 02:41:56;;;;;;;2.87;1.77;;;;;;;;;;4985725;28;20235;-68
2022/07/13 02:44:23;;;;;;;3.43;1.77;;;;;;;;;;5003091;28;20683;-67
2022/07/13 02:46:50;;;;;;;4.60;1.63;;;;;;;;;;4984781;28;20306;-68
2022/07/13 02:49:19;;;;;;;4.67;2.30;;;;;;;;;;5001254;28;20289;-67
2022/07/13 02:51:46;;;;;;;8.10;4.03;;;;;;;;;;4985775;28;20215;-67
2022/07/13 02:54:12;;;;;;;6.03;2.30;;;;;;;;;;5001497;28;20258;-67
2022/07/13 02:56:39;;;;;;;6.57;2.80;;;;;;;;;;5001498;28;20314;-67
2022/07/13 02:59:06;;;;;;;5.87;2.23;;;;;;;;;;4987497;28;20752;-67
2022/07/13 03:01:50;;;;;;;6.10;2.10;;;;;;;;;;4984634;28;20265;-67
2022/07/13 03:04:17;;;;;;;6.53;2.10;;;;;;;;;;4999502;28;20348;-67
2022/07/13 03:07:02;;;;;;;4.80;1.60;;;;;;;;;;4975397;28;20254;-67
2022/07/13 03:09:31;;;;;;;6.53;1.83;;;;;;;;;;4985638;28;20231;-67
2022/07/13 03:12:15;;;;;;;5.57;2.07;;;;;;;;;;4983678;28;20234;-67
2022/07/13 03:14:42;;;;;;;4.20;2.20;;;;;;;;;;4986945;28;20285;-67
2022/07/13 03:17:27;;;;;;;4.23;1.93;;;;;;;;;;4985128;28;20227;-67
2022/07/13 03:19:54;;;;;;;4.43;1.80;;;;;;;;;;4985997;28;20243;-67
2022/07/13 03:22:38;;;;;;;4.03;1.80;;;;;;;;;;4969887;28;20230;-69
2022/07/13 03:25:05;;;;;;;6.40;2.00;;;;;;;;;;4972531;28;20243;-67
2022/07/13 03:27:32;;;;;;;5.07;2.40;;;;;;;;;;4984086;28;20682;-67
2022/07/13 03:29:59;;;;;;;7.83;3.13;;;;;;;;;;4986201;28;20633;-67
2022/07/13 03:32:27;;;;;;;6.10;2.20;;;;;;;;;;4982978;28;20228;-67
2022/07/13 03:34:53;;;;;;;6.60;2.17;;;;;;;;;;5003595;28;20250;-67
2022/07/13 03:37:21;;;;;;;5.10;1.80;;;;;;;;;;4983850;28;20227;-67
2022/07/13 03:40:07;;;;;;;4.60;1.90;;;;;;;;;;4984928;28;20223;-67
2022/07/13 03:42:37;;;;;;;5.33;1.83;;;;;;;;;;4984031;28;20800;-68
2022/07/13 03:45:04;;;;;;;3.93;1.50;;;;;;;;;;4963756;28;20304;-68
2022/07/13 03:47:33;;;;;;;4.50;1.97;;;;;;;;;;4940527;28;20267;-70
2022/07/13 03:50:00;;;;;;;4.67;1.20;;;;;;;;;;4903262;28;20724;-69
2022/07/13 03:52:26;;;;;;;5.37;1.70;;;;;;;;;;4964080;28;20231;-70
2022/07/13 03:54:53;;;;;;;6.03;1.87;;;;;;;;;;4920440;28;20227;-69
2022/07/13 03:57:20;;;;;;;4.10;1.77;;;;;;;;;;4944343;28;23105;-69
2022/07/13 03:59:47;;;;;;;3.33;1.40;;;;;;;;;;4976484;28;20638;-68
2022/07/13 04:02:40;;;;;;;3.43;1.70;;;;;;;;;;4934303;28;20570;-71
2022/07/13 04:05:10;;;;;;;5.00;1.40;;;;;;;;;;4937509;28;227681;-69
2022/07/13 04:07:42;;;;;;;3.70;1.40;;;;;;;;;;4954533;28;20248;-68
2022/07/13 04:10:09;;;;;;;3.27;1.47;;;;;;;;;;4948973;28;217912;-69
2022/07/13 04:12:37;;;;;;;4.57;1.70;;;;;;;;;;4944697;28;20314;-68
2022/07/13 04:15:04;;;;;;;5.10;1.83;;;;;;;;;;4947429;28;20235;-69
2022/07/13 04:17:32;;;;;;;4.90;1.67;;;;;;;;;;4954263;28;21055;-71
2022/07/13 04:20:00;;;;;;;4.37;1.80;;;;;;;;;;4915220;28;212313;-70
2022/07/13 04:22:27;;;;;;;6.03;1.93;;;;;;;;;;4924138;28;216134;-70
2022/07/13 04:24:54;;;;;;;3.13;1.50;;;;;;;;;;4973728;28;20228;-69
2022/07/13 04:27:21;;;;;;;4.27;1.57;;;;;;;;;;4940550;28;21355;-69
2022/07/13 04:29:52;;;;;;;4.17;1.27;;;;;;;;;;4965605;28;20253;-68
2022/07/13 04:32:19;;;;;;;4.37;1.50;;;;;;;;;;4955044;28;23497;-69
2022/07/13 04:34:46;;;;;;;5.70;1.37;;;;;;;;;;4947615;28;216158;-68
2022/07/13 04:37:13;;;;;;;4.67;1.53;;;;;;;;;;4967439;28;20235;-69
2022/07/13 04:39:40;;;;;;;7.70;1.50;;;;;;;;;;4957892;28;20588;-68
2022/07/13 04:42:08;;;;;;;3.17;1.33;;;;;;;;;;4913396;28;26608;-71
2022/07/13 04:44:35;;;;;;;4.83;1.17;;;;;;;;;;4958189;28;20400;-68
2022/07/13 04:47:08;;;;;;;4.93;1.50;;;;;;;;;;4919933;28;220037;-68
2022/07/13 04:49:36;;;;;;;2.83;1.40;;;;;;;;;;4933342;28;36270;-68
2022/07/13 04:52:03;;;;;;;3.43;1.30;;;;;;;;;;4972305;28;20312;-68
2022/07/13 04:54:31;;;;;;;6.20;1.50;;;;;;;;;;4965633;28;47977;-67
2022/07/13 04:56:58;;;;;;;3.13;1.53;;;;;;;;;;4958989;28;20236;-68
2022/07/13 04:59:25;;;;;;;3.87;1.60;;;;;;;;;;4959954;28;20224;-67
2022/07/13 05:01:53;;;;;;;3.20;1.50;;;;;;;;;;4972963;28;20240;-68
2022/07/13 05:04:21;;;;;;;4.57;1.33;;;;;;;;;;4957927;28;20248;-69
2022/07/13 05:06:48;;;;;;;3.13;1.73;;;;;;;;;;4957538;28;20307;-67
2022/07/13 05:09:15;;;;;;;3.03;1.60;;;;;;;;;;4955581;28;20236;-68
2022/07/13 05:11:43;;;;;;;4.70;2.13;;;;;;;;;;4960772;28;20604;-67
2022/07/13 05:14:12;;;;;;;4.70;1.50;;;;;;;;;;4921745;28;22676;-67
2022/07/13 05:16:40;;;;;;;4.57;1.40;;;;;;;;;;4948656;28;22342;-68
2022/07/13 05:19:07;;;;;;;5.23;1.73;;;;;;;;;;4957456;28;25182;-67
2022/07/13 05:21:38;;;;;;;6.63;2.20;;;;;;;;;;4925992;28;20232;-69
2022/07/13 05:24:05;;;;;;;1.97;1.30;;;;;;;;;;4931151;28;20228;-69
2022/07/13 05:26:31;;;;;;;4.57;1.57;;;;;;;;;;4967919;28;20248;-70
2022/07/13 05:28:58;;;;;;;3.43;0.97;;;;;;;;;;4954494;28;20264;-69
2022/07/13 05:31:27;;;;;;;2.17;1.50;;;;;;;;;;4944228;28;218630;-70
2022/07/13 05:33:54;;;;;;;2.80;1.33;;;;;;;;;;4964912;28;20232;-73
2022/07/13 05:36:27;;;;;;;3.00;1.23;;;;;;;;;;4922176;28;229238;-69
2022/07/13 05:38:54;;;;;;;4.43;1.10;;;;;;;;;;4966526;28;21188;-68
2022/07/13 05:41:21;;;;;;;2.80;1.03;;;;;;;;;;4977981;28;20259;-65
2022/07/13 05:43:48;;;;;;;2.40;1.20;;;;;;;;;;4981894;28;20224;-66
2022/07/13 05:46:15;;;;;;;3.50;1.15;;;;;;;;;;4978036;28;20225;-66
2022/07/13 05:48:42;;;;;;;4.70;1.43;;;;;;;;;;4981186;28;20232;-66
2022/07/13 05:51:11;;;;;;;3.93;1.37;;;;;;;;;;4978682;28;20919;-66
2022/07/13 05:53:58;;;;;;;1.47;1.03;;;;;;;;;;4962789;28;20228;-70
2022/07/13 05:56:45;;;;;;;1.83;0.90;;;;;;;;;;4963977;28;20220;-67
2022/07/13 05:59:12;;;;;;;2.73;1.03;;;;;;;;;;4980007;28;20227;-67
2022/07/13 06:01:38;;;;;;;3.97;1.30;;;;;;;;;;4981482;28;20232;-66
2022/07/13 06:04:05;;;;;;;4.43;1.67;;;;;;;;;;4979529;28;20723;-66
2022/07/13 06:06:32;;;;;;;2.83;1.30;;;;;;;;;;4963465;28;20247;-66
2022/07/13 06:08:59;;;;;;;3.13;1.33;;;;;;;;;;4979522;28;20224;-67
2022/07/13 06:11:26;;;;;;;2.87;1.30;;;;;;;;;;4978744;28;20235;-68
2022/07/13 06:13:53;;;;;;;4.60;1.67;;;;;;;;;;4927348;28;219248;-68
2022/07/13 06:16:20;;;;;;;4.03;0.90;;;;;;;;;;4949675;28;20246;-71
2022/07/13 06:18:47;;;;;;;3.80;1.60;;;;;;;;;;4965404;28;20228;-68
2022/07/13 06:21:14;;;;;;;1.70;0.80;;;;;;;;;;4945663;28;219287;-68
2022/07/13 06:23:41;;;;;;;3.47;1.17;;;;;;;;;;4974875;28;20238;-67
2022/07/13 06:26:08;;;;;;;3.27;1.03;;;;;;;;;;4953349;28;20219;-67
2022/07/13 06:28:35;;;;;;;1.93;0.97;;;;;;;;;;4967887;28;232497;-66
2022/07/13 06:31:02;;;;;;;2.63;1.43;;;;;;;;;;4980978;28;20228;-67
2022/07/13 06:33:28;;;;;;;2.40;1.00;;;;;;;;;;4977822;28;20224;-67
2022/07/13 06:35:55;;;;;;;1.97;1.20;;;;;;;;;;4977344;28;20319;-67
2022/07/13 06:38:22;;;;;;;3.80;1.20;;;;;;;;;;4972794;28;20319;-67
2022/07/13 06:40:49;;;;;;;4.17;1.27;;;;;;;;;;4977740;28;20232;-66
2022/07/13 06:43:16;;;;;;;2.33;1.10;;;;;;;;;;4970557;28;20314;-66
2022/07/13 06:45:45;;;;;;;2.27;1.00;;;;;;;;;;4965258;28;20250;-67
2022/07/13 06:48:13;;;;;;;2.30;1.17;;;;;;;;;;4977083;28;20236;-65
2022/07/13 06:50:40;;;;;;;3.93;1.30;;;;;;;;;;4983657;28;20232;-65
2022/07/13 06:53:07;;;;;;;3.00;1.00;;;;;;;;;;4982535;28;20586;-69
2022/07/13 06:55:34;;;;;;;2.47;1.17;;;;;;;;;;4972323;28;20236;-71
2022/07/13 06:58:00;;;;;;;2.67;1.30;;;;;;;;;;4942470;28;20227;-68
2022/07/13 07:00:45;;;;;;;2.37;0.80;;;;;;;;;;4972449;28;24157;-68
2022/07/13 07:03:12;;;;;;;3.20;1.20;;;;;;;;;;4971836;28;20228;-68
2022/07/13 07:05:39;;;;;;;5.20;1.20;;;;;;;;;;4954117;28;20224;-69
2022/07/13 07:08:07;;;;;;;1.57;0.90;;;;;;;;;;4976881;28;20236;-68
2022/07/13 07:10:34;;;;;;;2.57;0.83;;;;;;;;;;4967113;28;20255;-67
2022/07/13 07:13:05;;;;;;;2.30;1.00;;;;;;;;;;4982375;28;20231;-67
2022/07/13 07:15:32;;;;;;;3.07;1.13;;;;;;;;;;4984476;28;20714;-66
2022/07/13 07:17:59;;;;;;;4.30;1.13;;;;;;;;;;4982393;28;20228;-68
2022/07/13 07:20:33;;;;;;;2.67;1.40;;;;;;;;;;4982972;28;20226;-67
2022/07/13 07:23:00;;;;;;;4.27;1.13;;;;;;;;;;4982184;28;20260;-69
2022/07/13 07:25:27;;;;;;;2.53;0.90;;;;;;;;;;4983493;28;20729;-68
2022/07/13 07:27:54;;;;;;;1.03;0.70;;;;;;;;;;4981533;28;20250;-68
2022/07/13 07:30:21;;;;;;;48.97;4.53;;;;;;;;;;4981591;28;20232;-67
2022/07/13 07:32:50;;;;;;;2.23;0.63;;;;;;;;;;4952078;28;23478;-69
2022/07/13 07:35:17;;;;;;;2.07;0.70;;;;;;;;;;4957255;28;20232;-69
2022/07/13 07:37:44;;;;;;;1.73;0.73;;;;;;;;;;4975238;28;20335;-70
2022/07/13 07:40:11;;;;;;;1.70;0.80;;;;;;;;;;4954795;28;218874;-71
2022/07/13 07:42:39;;;;;;;2.40;0.90;;;;;;;;;;4971573;28;20306;-68
2022/07/13 07:45:23;;;;;;;2.50;1.00;;;;;;;;;;4958101;28;20239;-73
2022/07/13 07:47:50;;;;;;;0.70;0.60;;;;;;;;;;4958767;28;54737;-71
2022/07/13 07:50:16;;;;;;;2.80;1.30;;;;;;;;;;4971806;28;20236;-69
2022/07/13 07:52:44;;;;;;;2.30;1.03;;;;;;;;;;4973119;28;221791;-72
2022/07/13 07:55:21;;;;;;;1.53;0.70;;;;;;;;;;4962282;28;20230;-72
2022/07/13 07:57:50;;;;;;;0.63;0.50;;;;;;;;;;4976177;28;20647;-70
2022/07/13 08:00:17;;;;;;;2.13;0.80;;;;;;;;;;4987317;28;20682;-70
2022/07/13 08:02:44;;;;;;;2.33;0.70;;;;;;;;;;4981271;28;20227;-71
2022/07/13 08:05:11;;;;;;;2.20;0.90;;;;;;;;;;4977663;28;20239;-71
2022/07/13 08:07:44;;;;;;;7.53;1.20;;;;;;;;;;4978002;28;20240;-72
2022/07/13 08:10:12;;;;;;;2.47;0.80;;;;;;;;;;4973969;28;20858;-72
2022/07/13 08:12:57;;;;;;;1.27;0.60;;;;;;;;;;4971270;28;20311;-71
2022/07/13 08:15:24;;;;;;;2.57;1.27;;;;;;;;;;4973975;28;20227;-69
2022/07/13 08:17:51;;;;;;;2.83;1.47;;;;;;;;;;4965818;28;20591;-70
2022/07/13 08:20:18;;;;;;;1.93;0.90;;;;;;;;;;4963024;28;20904;-70
2022/07/13 08:22:48;;;;;;;2.67;1.10;;;;;;;;;;4979756;28;20237;-70
2022/07/13 08:25:15;;;;;;;4.63;1.13;;;;;;;;;;4975628;28;23711;-67
2022/07/13 08:27:43;;;;;;;2.80;1.13;;;;;;;;;;4982223;28;20236;-69
2022/07/13 08:30:11;;;;;;;3.30;1.03;;;;;;;;;;4972242;28;229102;-68
2022/07/13 08:32:38;;;;;;;2.53;0.90;;;;;;;;;;4980787;28;20243;-68
2022/07/13 08:40:40;;;;;;;0.90;0.70;;;;;;;;;;4981321;28;20274;-67
2022/07/13 08:43:07;;;;;;;1.93;0.93;;;;;;;;;;4963242;28;20239;-70
2022/07/13 08:45:34;;;;;;;3.23;1.00;;;;;;;;;;4958752;28;20231;-69
2022/07/13 08:48:03;;;;;;;0.70;0.70;;;;;;;;;;4955100;28;20263;-69
2022/07/13 08:50:30;;;;;;;3.30;0.70;;;;;;;;;;4931205;28;212751;-69
2022/07/13 08:52:57;;;;;;;1.27;0.63;;;;;;;;;;4977926;28;20244;-69
2022/07/13 08:55:24;;;;;;;1.23;0.80;;;;;;;;;;4979833;28;20232;-69
2022/07/13 08:57:51;;;;;;;3.20;0.90;;;;;;;;;;4956916;28;20298;-68
2022/07/13 09:00:21;;;;;;;1.97;0.70;;;;;;;;;;4959766;28;20318;-71
2022/07/13 09:02:48;;;;;;;3.07;1.10;;;;;;;;;;4955453;28;20887;-69
2022/07/13 09:05:15;;;;;;;2.17;0.80;;;;;;;;;;4974366;28;20243;-69
2022/07/13 09:07:42;;;;;;;2.23;0.97;;;;;;;;;;4938579;28;20240;-69
2022/07/13 09:10:19;;;;;;;1.50;0.90;;;;;;;;;;4948835;28;214392;-69
2022/07/13 09:12:46;;;;;;;3.07;1.00;;;;;;;;;;4975249;28;20231;-69
2022/07/13 09:15:13;;;;;;;2.57;0.80;;;;;;;;;;4975864;28;20307;-68
2022/07/13 09:17:43;;;;;;;1.13;0.90;;;;;;;;;;4972740;28;20254;-68
2022/07/13 09:20:10;;;;;;;3.13;1.40;;;;;;;;;;4970159;28;20358;-67
2022/07/13 09:22:57;;;;;;;2.70;1.10;;;;;;;;;;4974716;28;20254;-69
2022/07/13 09:25:32;;;;;;;3.97;1.30;;;;;;;;;;4957270;28;20242;-67
2022/07/13 09:28:03;;;;;;;3.57;1.30;;;;;;;;;;4971303;28;20587;-67
2022/07/13 09:30:30;;;;;;;2.30;1.00;;;;;;;;;;4954243;28;20228;-67
2022/07/13 09:32:57;;;;;;;2.50;1.20;;;;;;;;;;4974640;28;27370;-68
2022/07/13 09:35:42;;;;;;;2.57;0.97;;;;;;;;;;4937723;28;20311;-70
2022/07/13 09:38:13;;;;;;;1.70;0.83;;;;;;;;;;4973737;28;20232;-70
2022/07/13 09:40:40;;;;;;;1.23;0.90;;;;;;;;;;4937636;28;20311;-69
2022/07/13 09:46:09;;;;;;;2.80;1.00;;;;;;;;;;4973560;28;20234;-68
2022/07/13 09:48:37;;;;;;;3.30;1.20;;;;;;;;;;4957818;28;20742;-69
2022/07/13 09:51:05;;;;;;;1.77;0.97;;;;;;;;;;4973451;28;20239;-68
2022/07/13 09:53:32;;;;;;;1.47;1.00;;;;;;;;;;4983302;28;20226;-67
2022/07/13 09:56:00;;;;;;;2.13;1.00;;;;;;;;;;4952018;28;27610;-67
2022/07/13 09:58:30;;;;;;;4.77;1.40;;;;;;;;;;4973313;28;20866;-68
2022/07/13 10:00:58;;;;;;;2.93;1.20;;;;;;;;;;4923655;28;20287;-68
2022/07/13 10:03:25;;;;;;;1.80;1.03;;;;;;;;;;4972722;28;20231;-70
2022/07/13 10:05:52;;;;;;;2.93;1.50;;;;;;;;;;4977957;28;20737;-70
2022/07/13 10:08:19;;;;;;;2.30;1.20;;;;;;;;;;4961674;28;20236;-67
2022/07/13 10:10:46;;;;;;;1.77;1.30;;;;;;;;;;4962809;28;20832;-69
2022/07/13 10:13:13;;;;;;;2.10;1.40;;;;;;;;;;4956171;28;20224;-68
2022/07/13 10:15:40;;;;;;;2.33;1.60;;;;;;;;;;4969616;28;20336;-67
2022/07/13 10:18:10;;;;;;;2.50;1.27;;;;;;;;;;4969070;28;20232;-70
2022/07/13 10:20:37;;;;;;;1.70;1.30;;;;;;;;;;4952025;28;20334;-67
2022/07/13 10:23:04;;;;;;;2.27;1.53;;;;;;;;;;4973770;28;20388;-69
2022/07/13 10:25:45;;;;;;;2.70;1.57;;;;;;;;;;4944894;28;20621;-67
2022/07/13 10:28:12;;;;;;;2.37;1.30;;;;;;;;;;4982672;28;20312;-65
2022/07/13 10:30:39;;;;;;;2.97;1.43;;;;;;;;;;4984160;28;20236;-66
2022/07/13 10:33:17;;;;;;;2.80;1.13;;;;;;;;;;4982668;28;20588;-66
2022/07/13 10:35:49;;;;;;;2.63;1.37;;;;;;;;;;4982378;28;20638;-66
2022/07/13 10:38:17;;;;;;;3.77;1.73;;;;;;;;;;4981864;28;20231;-67
2022/07/13 10:40:43;;;;;;;1.90;1.33;;;;;;;;;;4983612;28;23192;-66
2022/07/13 10:43:10;;;;;;;2.33;1.37;;;;;;;;;;4983661;28;20703;-66
2022/07/13 10:45:38;;;;;;;2.40;1.33;;;;;;;;;;4965169;28;20239;-66
2022/07/13 10:48:13;;;;;;;2.37;1.40;;;;;;;;;;4982388;28;20630;-66
2022/07/13 10:50:46;;;;;;;2.60;1.20;;;;;;;;;;4964490;28;20774;-66
2022/07/13 10:53:16;;;;;;;2.87;1.77;;;;;;;;;;4983600;28;20247;-66
2022/07/13 10:55:49;;;;;;;5.23;1.70;;;;;;;;;;4964400;28;20238;-66
2022/07/13 10:58:35;;;;;;;4.17;2.10;;;;;;;;;;4967020;28;20313;-66
2022/07/13 11:01:07;;;;;;;2.63;1.50;;;;;;;;;;4981402;28;26947;-67
2022/07/13 11:03:38;;;;;;;3.30;1.60;;;;;;;;;;4982420;28;20646;-66
2022/07/13 11:06:31;;;;;;;2.67;1.60;;;;;;;;;;4970205;28;20240;-65
2022/07/13 11:09:07;;;;;;;2.17;1.67;;;;;;;;;;4982324;28;20243;-66
2022/07/13 11:11:35;;;;;;;3.60;1.63;;;;;;;;;;4967979;28;20314;-66
2022/07/13 11:14:02;;;;;;;2.63;1.57;;;;;;;;;;4968888;28;20310;-65
2022/07/13 11:16:48;;;;;;;4.10;1.70;;;;;;;;;;4964996;28;20280;-66
2022/07/13 11:19:15;;;;;;;2.30;1.70;;;;;;;;;;4966754;28;20231;-66
2022/07/13 11:22:00;;;;;;;2.83;1.50;;;;;;;;;;4982381;28;20399;-66
2022/07/13 11:27:13;;;;;;;4.40;1.63;;;;;;;;;;4966959;28;20227;-67
2022/07/13 11:29:43;;;;;;;3.20;2.30;;;;;;;;;;4966679;28;20245;-67
2022/07/13 11:32:10;;;;;;;3.00;2.00;;;;;;;;;;4982700;28;20269;-67
2022/07/13 11:34:37;;;;;;;2.17;1.40;;;;;;;;;;4983630;28;20299;-67
2022/07/13 11:37:04;;;;;;;2.03;1.50;;;;;;;;;;4973892;28;231884;-67
2022/07/13 11:39:34;;;;;;;3.73;1.63;;;;;;;;;;4983518;28;20228;-67
2022/07/13 11:42:05;;;;;;;2.50;1.50;;;;;;;;;;4983499;28;20315;-67
2022/07/13 11:44:32;;;;;;;2.70;1.50;;;;;;;;;;4982093;28;20228;-66
2022/07/13 11:47:03;;;;;;;1.70;1.30;;;;;;;;;;4952594;28;20234;-66
2022/07/13 11:49:49;;;;;;;2.47;1.30;;;;;;;;;;4982345;28;20227;-66
2022/07/13 11:52:22;;;;;;;1.83;1.50;;;;;;;;;;4978041;28;20244;-67
2022/07/13 11:54:58;;;;;;;2.90;1.83;;;;;;;;;;4979894;28;20259;-66
2022/07/13 11:57:25;;;;;;;3.67;1.70;;;;;;;;;;4982370;28;20232;-66
2022/07/13 11:59:52;;;;;;;3.53;1.70;;;;;;;;;;4984284;28;20282;-66
2022/07/13 12:02:19;;;;;;;2.80;1.67;;;;;;;;;;4981725;28;20231;-65
2022/07/13 12:04:48;;;;;;;3.57;1.70;;;;;;;;;;4981695;28;20962;-70
2022/07/13 12:07:18;;;;;;;2.47;1.80;;;;;;;;;;4983743;28;20255;-66
2022/07/13 12:10:04;;;;;;;3.63;1.90;;;;;;;;;;4980628;28;24708;-66
2022/07/13 12:12:32;;;;;;;1.93;1.60;;;;;;;;;;4981872;28;20287;-66
2022/07/13 12:14:59;;;;;;;5.33;1.70;;;;;;;;;;4981568;28;20232;-66
2022/07/13 12:17:26;;;;;;;2.87;1.70;;;;;;;;;;4983598;28;20277;-66
2022/07/13 12:20:07;;;;;;;4.83;1.57;;;;;;;;;;4981361;28;20228;-65
2022/07/13 12:22:36;;;;;;;3.17;1.63;;;;;;;;;;4965604;28;20227;-66
2022/07/13 12:25:03;;;;;;;2.23;1.37;;;;;;;;;;4965899;28;20301;-67
2022/07/13 12:27:31;;;;;;;3.33;1.30;;;;;;;;;;4980206;28;20227;-68
2022/07/13 12:30:11;;;;;;;3.77;1.40;;;;;;;;;;4982347;28;20235;-68
2022/07/13 12:32:55;;;;;;;3.93;1.50;;;;;;;;;;4965065;28;20306;-67
2022/07/13 12:35:40;;;;;;;3.50;1.70;;;;;;;;;;4958136;28;20239;-67
2022/07/13 12:38:12;;;;;;;2.83;1.60;;;;;;;;;;4979157;28;20235;-68
2022/07/13 12:40:42;;;;;;;1.70;1.53;;;;;;;;;;4959745;28;20609;-68
2022/07/13 12:43:19;;;;;;;5.20;1.60;;;;;;;;;;4972390;28;20251;-68
2022/07/13 12:45:50;;;;;;;2.83;1.70;;;;;;;;;;4978144;28;20631;-68
2022/07/13 12:48:34;;;;;;;5.00;1.93;;;;;;;;;;4978697;28;21081;-69
2022/07/13 12:51:08;;;;;;;2.27;1.90;;;;;;;;;;4979763;28;20318;-69
2022/07/13 12:53:46;;;;;;;2.67;1.50;;;;;;;;;;4964356;28;20335;-68
2022/07/13 12:56:17;;;;;;;3.23;1.80;;;;;;;;;;4967199;28;20307;-68
2022/07/13 12:58:47;;;;;;;4.37;1.80;;;;;;;;;;4980291;28;20259;-68
2022/07/13 13:01:30;;;;;;;3.37;1.80;;;;;;;;;;4979034;28;20224;-68
2022/07/13 13:03:58;;;;;;;1.93;1.50;;;;;;;;;;4982008;28;20259;-68
2022/07/13 13:06:31;;;;;;;1.80;1.30;;;;;;;;;;4964337;28;20232;-68
2022/07/13 13:09:24;;;;;;;3.43;1.63;;;;;;;;;;4980724;28;20239;-71
2022/07/13 13:11:52;;;;;;;3.50;1.80;;;;;;;;;;4966016;28;20287;-68
2022/07/13 13:14:20;;;;;;;3.50;1.57;;;;;;;;;;4981988;28;20243;-68
2022/07/13 13:16:47;;;;;;;3.10;1.47;;;;;;;;;;4979765;28;20722;-68
2022/07/13 13:19:14;;;;;;;3.47;1.77;;;;;;;;;;4982746;28;20236;-68
2022/07/13 13:21:40;;;;;;;3.07;1.70;;;;;;;;;;4980159;28;20228;-68
2022/07/13 13:24:08;;;;;;;4.00;1.60;;;;;;;;;;4982457;28;20223;-68
2022/07/13 13:26:35;;;;;;;2.67;1.30;;;;;;;;;;4980403;28;20270;-68
2022/07/13 13:32:07;;;;;;;2.10;1.70;;;;;;;;;;4962210;28;20224;-67
2022/07/13 13:34:34;;;;;;;2.43;1.70;;;;;;;;;;4964460;28;20231;-70
2022/07/13 13:37:01;;;;;;;3.47;1.40;;;;;;;;;;4980739;28;20262;-68
2022/07/13 13:39:28;;;;;;;4.03;1.50;;;;;;;;;;4966334;28;20243;-67
2022/07/13 13:42:12;;;;;;;3.00;1.43;;;;;;;;;;4981201;28;22003;-68
2022/07/13 13:44:59;;;;;;;2.93;1.60;;;;;;;;;;4979815;28;20243;-68
2022/07/13 13:47:26;;;;;;;5.83;1.40;;;;;;;;;;4980909;28;20303;-67
2022/07/13 13:49:53;;;;;;;3.17;1.27;;;;;;;;;;4979930;28;20238;-67
2022/07/13 13:52:20;;;;;;;2.57;1.63;;;;;;;;;;4981831;28;20228;-68
2022/07/13 13:54:46;;;;;;;4.03;1.40;;;;;;;;;;4964478;28;20232;-67
2022/07/13 13:57:13;;;;;;;1.80;1.50;;;;;;;;;;4981693;28;20223;-66
2022/07/13 13:59:40;;;;;;;2.90;1.30;;;;;;;;;;4962154;28;20236;-66
2022/07/13 14:02:29;;;;;;;2.03;1.40;;;;;;;;;;4965295;28;20353;-66
2022/07/13 14:04:56;;;;;;;4.37;1.50;;;;;;;;;;4980038;28;20239;-66
2022/07/13 14:07:23;;;;;;;5.10;1.50;;;;;;;;;;4981170;28;20310;-66
2022/07/13 14:09:50;;;;;;;2.90;1.80;;;;;;;;;;4962984;28;20223;-66
2022/07/13 14:12:17;;;;;;;2.20;1.40;;;;;;;;;;4981215;28;20237;-66
2022/07/13 14:14:44;;;;;;;2.87;1.60;;;;;;;;;;4980396;28;20306;-66
2022/07/13 14:17:17;;;;;;;3.10;1.87;;;;;;;;;;4979650;28;20718;-66
2022/07/13 14:19:46;;;;;;;2.90;1.60;;;;;;;;;;4981036;28;20750;-66
2022/07/13 14:22:32;;;;;;;3.90;1.77;;;;;;;;;;4963613;28;20706;-68
2022/07/13 14:24:59;;;;;;;3.03;1.60;;;;;;;;;;4966377;28;20254;-66
2022/07/13 14:27:43;;;;;;;4.57;1.87;;;;;;;;;;4980585;28;20227;-66
2022/07/13 14:30:10;;;;;;;7.43;1.80;;;;;;;;;;4980171;28;20236;-66
2022/07/13 14:32:37;;;;;;;4.73;1.80;;;;;;;;;;4981495;28;20228;-66
2022/07/13 14:35:08;;;;;;;3.53;1.60;;;;;;;;;;4979831;28;20597;-59
2022/07/13 14:37:35;;;;;;;2.00;1.30;;;;;;;;;;4966523;28;20239;-58
2022/07/13 14:40:02;;;;;;;3.73;1.67;;;;;;;;;;4979625;28;20592;-56
2022/07/13 14:42:29;;;;;;;1.63;1.40;;;;;;;;;;4981139;28;20755;-58
2022/07/13 14:44:55;;;;;;;3.20;1.63;;;;;;;;;;4980095;28;20243;-56
2022/07/13 14:47:22;;;;;;;4.83;1.83;;;;;;;;;;4981537;28;20221;-58
2022/07/13 14:50:10;;;;;;;3.90;1.80;;;;;;;;;;4950370;28;20246;-60
2022/07/13 14:52:52;;;;;;;3.70;1.60;;;;;;;;;;4980576;28;20235;-59
2022/07/13 14:55:19;;;;;;;2.27;1.37;;;;;;;;;;4964031;28;20235;-58
2022/07/13 14:57:45;;;;;;;1.77;1.60;;;;;;;;;;4980370;28;20255;-58
2022/07/13 15:00:13;;;;;;;3.67;1.63;;;;;;;;;;4980625;28;20239;-58
2022/07/13 15:02:40;;;;;;;6.60;2.00;;;;;;;;;;4980282;28;20228;-59
2022/07/13 15:05:12;;;;;;;4.33;2.00;;;;;;;;;;4982314;28;22925;-60
2022/07/13 15:07:39;;;;;;;3.17;1.70;;;;;;;;;;4983276;28;20228;-59
2022/07/13 15:10:06;;;;;;;2.27;1.67;;;;;;;;;;4984058;28;20302;-62
2022/07/13 15:12:50;;;;;;;2.63;1.63;;;;;;;;;;4967689;28;20242;-60